Elgin, Tennessee
Current Conditions -  °F | °C
As of 10:53 AM on Monday 24 Nov 2014 (Local Time) from KOQT Reporting Station
Overcast Overcast  
Wind Chill: 67°   Ceiling: 3900
Heat Index: 67°   Visibility: 10mi
Dew Point: 53°   Wind: 15mph
Humidity: 61%   Direction: 220°SW
Pressure: 29.72"   Gusts: 29mph
Location:  36.33°N, 84.61°W
Report Text: KOQT 241553Z AUTO 22013G25KT 10SM BKN039 BKN047 OVC060 19/12 A2972 RMK AO2 PK WND 20027/1538 SLP056 T01940117
Loading
Personal Weather Stations






























Interactive Weather Map New forecast layout! Learn more

10-Day Weather Forecast

Advertisements
Track Severe Weather on mobile